Time;durP1;ratioP1;P1;durP2;ratioP2;P2;SDS_P1;SDS_P2;PMS_P1;PMS_P2;Temp;Humidity;BMP_temperature;BMP_pressure;BME280_temperature;BME280_humidity;BME280_pressure;Samples;Min_cycle;Max_cycle;Signal;HPM_P1;HPM_P2
2022/07/13 00:02:25;;;;;;;1.52;1.00;;;20.00;99.90;;;;;;5023922;28;20500;-78
2022/07/13 00:04:52;;;;;;;3.38;0.90;;;19.90;99.90;;;;;;5028523;28;20084;-78
2022/07/13 00:07:19;;;;;;;2.25;0.93;;;19.90;99.90;;;;;;5037437;28;20049;-79
2022/07/13 00:09:46;;;;;;;1.10;0.90;;;19.90;99.90;;;;;;5028241;28;20046;-79
2022/07/13 00:12:12;;;;;;;1.10;0.73;;;19.90;99.90;;;;;;5026148;28;20046;-78
2022/07/13 00:14:39;;;;;;;1.20;0.88;;;19.80;99.90;;;;;;5025320;28;20050;-77
2022/07/13 00:17:06;;;;;;;0.80;0.80;;;19.90;99.90;;;;;;5028034;28;20069;-77
2022/07/13 00:19:33;;;;;;;1.33;0.90;;;19.80;99.90;;;;;;5034638;28;20053;-78
2022/07/13 00:21:59;;;;;;;1.48;0.85;;;19.80;99.90;;;;;;5029810;28;20081;-77
2022/07/13 00:24:26;;;;;;;4.57;1.00;;;19.80;99.90;;;;;;5046841;28;20041;-80
2022/07/13 00:26:53;;;;;;;2.55;0.88;;;19.80;99.90;;;;;;5058056;28;20061;-80
2022/07/13 00:29:19;;;;;;;0.98;0.88;;;19.80;99.90;;;;;;5049591;28;20037;-80
2022/07/13 00:31:49;;;;;;;1.52;0.75;;;19.70;99.90;;;;;;5048449;28;20050;-80
2022/07/13 00:34:16;;;;;;;1.13;0.90;;;19.70;99.90;;;;;;5051957;28;20030;-80
2022/07/13 00:36:42;;;;;;;1.25;0.90;;;19.60;99.90;;;;;;5048533;28;20269;-80
2022/07/13 00:39:09;;;;;;;4.82;0.90;;;19.60;99.90;;;;;;5050851;28;20068;-79
2022/07/13 00:41:43;;;;;;;1.65;0.80;;;19.60;99.90;;;;;;5047291;28;20064;-80
2022/07/13 00:44:09;;;;;;;2.55;1.10;;;19.60;99.90;;;;;;5036054;28;20085;-79
2022/07/13 00:46:37;;;;;;;2.17;1.05;;;19.50;99.90;;;;;;5025483;28;20103;-79
2022/07/13 00:49:04;;;;;;;2.60;1.00;;;19.50;99.90;;;;;;5024422;28;20085;-77
2022/07/13 00:51:30;;;;;;;1.95;0.70;;;19.40;99.90;;;;;;5030753;28;20046;-78
2022/07/13 00:53:59;;;;;;;0.70;0.70;;;19.40;99.90;;;;;;5025089;28;20042;-78
2022/07/13 00:56:27;;;;;;;2.15;1.00;;;19.40;99.90;;;;;;5025374;28;20046;-78
2022/07/13 00:58:53;;;;;;;1.15;1.00;;;19.30;99.90;;;;;;5025743;28;20129;-79
2022/07/13 01:01:21;;;;;;;1.50;0.85;;;19.20;99.90;;;;;;5027203;28;20076;-79
2022/07/13 01:03:48;;;;;;;2.50;1.15;;;19.30;99.90;;;;;;5025890;28;20132;-79
2022/07/13 01:06:16;;;;;;;1.25;1.10;;;19.20;99.90;;;;;;5024396;28;20306;-79
2022/07/13 01:08:43;;;;;;;1.58;0.93;;;19.20;99.90;;;;;;5019618;28;20081;-79
2022/07/13 01:11:10;;;;;;;1.38;1.05;;;19.10;99.90;;;;;;5026102;28;20575;-78
2022/07/13 01:13:37;;;;;;;2.70;1.00;;;19.20;99.90;;;;;;5020567;28;20101;-79
2022/07/13 01:16:05;;;;;;;1.02;0.73;;;19.20;99.90;;;;;;5025487;28;20092;-78
2022/07/13 01:18:32;;;;;;;1.50;0.90;;;19.20;99.90;;;;;;5027076;28;20042;-78
2022/07/13 01:21:00;;;;;;;1.45;1.00;;;19.20;99.90;;;;;;5024876;28;20093;-78
2022/07/13 01:23:27;;;;;;;3.63;1.13;;;19.10;99.90;;;;;;5025061;28;20057;-78
2022/07/13 01:25:56;;;;;;;5.57;1.17;;;19.10;99.90;;;;;;5025741;28;20139;-77
2022/07/13 01:28:23;;;;;;;3.63;1.20;;;19.10;99.90;;;;;;5030472;28;20511;-77
2022/07/13 01:30:50;;;;;;;3.40;1.20;;;19.10;99.90;;;;;;5027743;28;20045;-78
2022/07/13 01:33:17;;;;;;;1.00;0.90;;;19.00;99.90;;;;;;5025810;28;20052;-79
2022/07/13 01:35:44;;;;;;;1.10;1.00;;;19.00;99.90;;;;;;5026811;28;20100;-79
2022/07/13 01:38:11;;;;;;;1.10;0.85;;;19.00;99.90;;;;;;5020634;28;20046;-79
2022/07/13 01:40:41;;;;;;;2.33;1.10;;;19.00;99.90;;;;;;5024751;28;20097;-78
2022/07/13 01:43:08;;;;;;;1.40;1.02;;;19.00;99.90;;;;;;5023910;28;20089;-79
2022/07/13 01:45:35;;;;;;;1.00;0.93;;;19.00;99.90;;;;;;5025392;28;20112;-79
2022/07/13 01:48:02;;;;;;;2.60;0.88;;;19.00;99.90;;;;;;5025716;28;20050;-79
2022/07/13 01:50:29;;;;;;;1.15;1.05;;;18.90;99.90;;;;;;5023326;28;20496;-77
2022/07/13 01:52:56;;;;;;;1.05;0.90;;;18.90;99.90;;;;;;5024032;28;20069;-78
2022/07/13 01:55:24;;;;;;;1.27;1.00;;;18.80;99.90;;;;;;5025383;28;20599;-78
2022/07/13 01:57:56;;;;;;;2.38;1.13;;;18.80;99.90;;;;;;5022624;28;20243;-78
2022/07/13 02:00:23;;;;;;;1.08;0.90;;;18.70;99.90;;;;;;5022471;28;20050;-78
2022/07/13 02:02:49;;;;;;;2.40;1.20;;;18.70;99.90;;;;;;5024178;28;20145;-79
2022/07/13 02:05:17;;;;;;;1.85;1.23;;;18.70;99.90;;;;;;5025526;28;20069;-77
2022/07/13 02:07:44;;;;;;;2.55;1.05;;;18.70;99.90;;;;;;5025890;28;20081;-78
2022/07/13 02:10:12;;;;;;;1.42;1.10;;;18.70;99.90;;;;;;5025262;28;20511;-79
2022/07/13 02:12:39;;;;;;;1.70;1.10;;;18.60;99.90;;;;;;5019514;28;20459;-79
2022/07/13 02:15:08;;;;;;;1.55;0.95;;;18.60;99.90;;;;;;5022611;28;20092;-78
2022/07/13 02:17:35;;;;;;;1.30;1.10;;;18.50;99.90;;;;;;5027817;28;20046;-78
2022/07/13 02:20:02;;;;;;;1.85;1.10;;;18.50;99.90;;;;;;5024597;28;20569;-79
2022/07/13 02:22:40;;;;;;;3.00;1.20;;;18.50;99.90;;;;;;5026312;28;20084;-78
2022/07/13 02:25:07;;;;;;;1.23;1.05;;;18.60;99.90;;;;;;5022540;28;20482;-79
2022/07/13 02:27:35;;;;;;;3.45;1.23;;;18.60;99.90;;;;;;5022565;28;20054;-78
2022/07/13 02:30:02;;;;;;;0.85;0.85;;;18.50;99.90;;;;;;5024279;28;20491;-79
2022/07/13 02:32:28;;;;;;;0.80;0.77;;;18.50;99.90;;;;;;5021493;28;20081;-78
2022/07/13 02:34:55;;;;;;;3.38;0.95;;;18.50;99.90;;;;;;5018240;28;20042;-79
2022/07/13 02:37:22;;;;;;;1.77;1.10;;;18.50;99.90;;;;;;5025260;28;20136;-79
2022/07/13 02:39:51;;;;;;;1.10;1.00;;;18.40;99.90;;;;;;5023700;28;20568;-79
2022/07/13 02:42:18;;;;;;;2.65;1.00;;;18.40;99.90;;;;;;5027222;28;20082;-78
2022/07/13 02:44:44;;;;;;;1.23;1.13;;;18.40;99.90;;;;;;5024776;28;20140;-79
2022/07/13 02:47:11;;;;;;;2.83;0.95;;;18.40;99.90;;;;;;5026543;28;20403;-78
2022/07/13 02:49:38;;;;;;;2.40;0.90;;;18.40;99.90;;;;;;5023543;28;20056;-79
2022/07/13 02:52:05;;;;;;;2.25;1.15;;;18.40;99.90;;;;;;5024991;28;20073;-79
2022/07/13 02:54:32;;;;;;;1.17;1.00;;;18.30;99.90;;;;;;5024852;28;20080;-77
2022/07/13 02:56:58;;;;;;;2.17;1.17;;;18.30;99.90;;;;;;5025115;28;20288;-78
2022/07/13 02:59:25;;;;;;;2.70;1.20;;;18.30;99.90;;;;;;5021001;28;20137;-80
2022/07/13 03:01:52;;;;;;;1.00;0.90;;;18.30;99.90;;;;;;5027399;28;20081;-79
2022/07/13 03:04:18;;;;;;;1.55;1.17;;;18.20;99.90;;;;;;5028865;28;20415;-78
2022/07/13 03:06:45;;;;;;;3.58;1.10;;;18.20;99.90;;;;;;5023288;28;20074;-79
2022/07/13 03:09:12;;;;;;;2.28;1.20;;;18.20;99.90;;;;;;5025332;28;20086;-79
2022/07/13 03:11:38;;;;;;;1.10;1.00;;;18.10;99.90;;;;;;5027679;28;20046;-78
2022/07/13 03:14:05;;;;;;;2.55;1.20;;;18.20;99.90;;;;;;5025476;28;20050;-78
2022/07/13 03:16:32;;;;;;;2.03;1.08;;;18.20;99.90;;;;;;5024238;28;20085;-79
2022/07/13 03:19:00;;;;;;;2.45;1.38;;;18.10;99.90;;;;;;5025750;28;20053;-77
2022/07/13 03:21:29;;;;;;;1.95;1.27;;;18.10;99.90;;;;;;5029285;28;20083;-78
2022/07/13 03:23:57;;;;;;;1.33;1.00;;;18.10;99.90;;;;;;5019235;28;20053;-77
2022/07/13 03:26:24;;;;;;;1.25;1.00;;;18.10;99.90;;;;;;5021524;28;20598;-77
2022/07/13 03:28:50;;;;;;;3.92;1.20;;;18.10;99.90;;;;;;5025875;28;20128;-78
2022/07/13 03:31:18;;;;;;;2.53;1.23;;;18.00;99.90;;;;;;5021068;28;20042;-78
2022/07/13 03:33:44;;;;;;;2.08;1.10;;;18.00;99.90;;;;;;5024012;28;20046;-77
2022/07/13 03:36:12;;;;;;;2.20;1.17;;;18.10;99.90;;;;;;5018896;28;20121;-77
2022/07/13 03:38:39;;;;;;;3.80;1.20;;;18.00;99.90;;;;;;5033392;28;20041;-79
2022/07/13 03:41:06;;;;;;;1.80;1.42;;;18.00;99.90;;;;;;5023743;28;20081;-78
2022/07/13 03:43:33;;;;;;;1.38;1.15;;;17.90;99.90;;;;;;5024103;28;20136;-77
2022/07/13 03:45:59;;;;;;;1.00;0.90;;;17.90;99.90;;;;;;5026255;28;20085;-78
2022/07/13 03:48:26;;;;;;;1.95;1.25;;;17.90;99.90;;;;;;5019973;28;20463;-77
2022/07/13 03:50:53;;;;;;;1.38;1.20;;;17.80;99.90;;;;;;5024467;28;20085;-77
2022/07/13 03:53:20;;;;;;;1.52;1.17;;;17.90;99.90;;;;;;5033033;28;20125;-79
2022/07/13 03:55:46;;;;;;;1.35;1.10;;;17.90;99.90;;;;;;5024472;28;20093;-78
2022/07/13 03:58:13;;;;;;;1.65;1.02;;;17.80;99.90;;;;;;5023161;28;20056;-78
2022/07/13 04:00:40;;;;;;;1.45;1.05;;;17.80;99.90;;;;;;5027754;28;20342;-78
2022/07/13 04:03:07;;;;;;;3.35;1.23;;;17.80;99.90;;;;;;5026368;28;20074;-78
2022/07/13 04:05:33;;;;;;;1.33;1.10;;;17.80;99.90;;;;;;5025581;28;20053;-78
2022/07/13 04:08:00;;;;;;;2.22;1.10;;;17.80;99.90;;;;;;5027178;28;20077;-78
2022/07/13 04:10:27;;;;;;;2.47;1.30;;;17.80;99.90;;;;;;5032801;28;20083;-78
2022/07/13 04:12:53;;;;;;;3.50;1.27;;;17.80;99.90;;;;;;5027467;28;20049;-77
2022/07/13 04:15:28;;;;;;;2.10;1.23;;;17.80;99.90;;;;;;5026969;28;20045;-78
2022/07/13 04:17:54;;;;;;;1.52;1.15;;;17.80;99.90;;;;;;5023803;28;20089;-78
2022/07/13 04:20:21;;;;;;;2.88;1.20;;;17.80;99.90;;;;;;5030703;28;20053;-77
2022/07/13 04:22:48;;;;;;;1.58;1.30;;;17.80;99.90;;;;;;5025269;28;20096;-78
2022/07/13 04:25:15;;;;;;;3.63;1.55;;;17.80;99.90;;;;;;5027065;28;20100;-79
2022/07/13 04:27:41;;;;;;;3.40;1.20;;;17.80;99.90;;;;;;5026587;28;20084;-79
2022/07/13 04:30:09;;;;;;;2.15;1.30;;;17.80;99.90;;;;;;5020929;28;20085;-79
2022/07/13 04:32:35;;;;;;;4.63;1.67;;;17.90;99.90;;;;;;5024888;28;20081;-79
2022/07/13 04:35:02;;;;;;;1.80;1.27;;;17.80;99.90;;;;;;5024825;28;20042;-79
2022/07/13 04:37:29;;;;;;;1.92;1.20;;;17.80;99.90;;;;;;5027179;28;20132;-79
2022/07/13 04:39:55;;;;;;;2.65;1.23;;;17.80;99.90;;;;;;5027785;28;20065;-77
2022/07/13 04:42:22;;;;;;;2.97;1.17;;;17.80;99.90;;;;;;5025913;28;20070;-78
2022/07/13 04:44:49;;;;;;;2.03;1.08;;;17.80;99.90;;;;;;5030230;28;20507;-77
2022/07/13 04:47:15;;;;;;;3.70;1.75;;;17.80;99.90;;;;;;5026116;28;20042;-79
2022/07/13 04:49:42;;;;;;;3.63;1.10;;;17.80;99.90;;;;;;5020000;28;20073;-78
2022/07/13 04:52:09;;;;;;;2.50;1.10;;;17.80;99.90;;;;;;5026955;28;20137;-79
2022/07/13 04:54:36;;;;;;;2.13;1.25;;;17.80;99.90;;;;;;5026387;28;20462;-78
2022/07/13 04:57:02;;;;;;;2.50;1.50;;;17.90;99.90;;;;;;5024597;28;20077;-77
2022/07/13 04:59:29;;;;;;;4.10;1.27;;;18.00;99.90;;;;;;5024556;28;20084;-78
2022/07/13 05:01:56;;;;;;;4.53;1.50;;;18.10;99.90;;;;;;5033204;28;20085;-78
2022/07/13 05:04:24;;;;;;;1.85;1.52;;;18.20;99.90;;;;;;5023018;28;20590;-78
2022/07/13 05:06:50;;;;;;;2.15;1.30;;;18.40;99.90;;;;;;5024497;28;20046;-78
2022/07/13 05:09:17;;;;;;;1.45;1.35;;;18.60;99.90;;;;;;5025115;28;20524;-78
2022/07/13 05:11:44;;;;;;;2.35;1.95;;;18.70;99.90;;;;;;5024447;28;20081;-77
2022/07/13 05:14:11;;;;;;;3.88;1.20;;;18.80;99.90;;;;;;5024764;28;20081;-78
2022/07/13 05:16:37;;;;;;;2.50;1.27;;;19.00;99.90;;;;;;5022778;28;20534;-77
2022/07/13 05:19:05;;;;;;;3.15;0.88;;;19.10;99.90;;;;;;5022248;28;20491;-77
2022/07/13 05:21:31;;;;;;;4.15;1.02;;;19.30;99.90;;;;;;5023558;28;20478;-77
2022/07/13 05:23:58;;;;;;;4.03;1.20;;;19.40;99.90;;;;;;5030441;28;20593;-79
2022/07/13 05:26:27;;;;;;;3.53;1.10;;;19.50;99.90;;;;;;5022207;28;20064;-79
2022/07/13 05:28:53;;;;;;;3.58;1.83;;;19.60;99.90;;;;;;5022071;28;20050;-78
2022/07/13 05:31:20;;;;;;;1.70;1.15;;;19.70;99.90;;;;;;5024761;28;20080;-78
2022/07/13 05:33:47;;;;;;;6.75;1.50;;;19.80;99.90;;;;;;5023225;28;20264;-77
2022/07/13 05:36:13;;;;;;;1.80;1.20;;;19.90;99.90;;;;;;5022731;28;20551;-78
2022/07/13 05:38:40;;;;;;;6.35;2.00;;;20.00;99.90;;;;;;5024542;28;20085;-78
2022/07/13 05:41:08;;;;;;;3.83;1.50;;;20.00;99.90;;;;;;5023240;28;20128;-79
2022/07/13 05:43:35;;;;;;;4.05;1.75;;;20.10;99.90;;;;;;5021698;28;20085;-78
2022/07/13 05:46:02;;;;;;;6.20;1.35;;;20.10;99.90;;;;;;5023803;28;20580;-77
2022/07/13 05:48:29;;;;;;;4.75;1.50;;;20.10;99.90;;;;;;5023374;28;20053;-77
2022/07/13 05:50:55;;;;;;;9.73;1.58;;;20.00;99.90;;;;;;5021189;28;20078;-79
2022/07/13 05:53:42;;;;;;;7.82;1.50;;;20.00;99.90;;;;;;5017966;28;20551;-77
2022/07/13 05:56:09;;;;;;;4.95;1.40;;;20.00;99.90;;;;;;5019704;28;20050;-78
2022/07/13 05:58:36;;;;;;;6.75;1.63;;;20.00;99.90;;;;;;5024431;28;20077;-78
2022/07/13 06:01:02;;;;;;;7.15;1.17;;;20.00;99.90;;;;;;5023649;28;20133;-77
2022/07/13 06:03:29;;;;;;;6.95;1.90;;;20.00;99.90;;;;;;5023370;28;20050;-77
2022/07/13 06:05:56;;;;;;;4.57;2.30;;;20.00;99.90;;;;;;5026945;28;20041;-78
2022/07/13 06:08:22;;;;;;;6.60;2.45;;;20.00;99.90;;;;;;5024908;28;20045;-78
2022/07/13 06:10:52;;;;;;;4.95;1.65;;;20.00;99.90;;;;;;5021317;28;20109;-80
2022/07/13 06:13:21;;;;;;;4.00;1.30;;;20.00;99.90;;;;;;5022019;28;20054;-78
2022/07/13 06:15:48;;;;;;;6.63;1.63;;;20.00;99.90;;;;;;5025252;28;20077;-79
2022/07/13 06:18:14;;;;;;;3.80;1.40;;;20.10;99.90;;;;;;5027019;28;20049;-78
2022/07/13 06:20:41;;;;;;;2.47;1.42;;;20.10;99.90;;;;;;5025480;28;20140;-79
2022/07/13 06:23:11;;;;;;;8.05;1.25;;;20.10;99.90;;;;;;5026855;28;20400;-79
2022/07/13 06:25:41;;;;;;;3.60;1.10;;;20.10;99.90;;;;;;5023722;28;20076;-79
2022/07/13 06:28:08;;;;;;;1.75;0.82;;;20.10;99.90;;;;;;5026913;28;20503;-77
2022/07/13 06:30:36;;;;;;;3.00;1.10;;;20.10;99.90;;;;;;5025002;28;20088;-79
2022/07/13 06:33:03;;;;;;;1.65;1.00;;;20.10;99.90;;;;;;5023979;28;20054;-79
2022/07/13 06:35:31;;;;;;;1.35;1.10;;;20.20;99.90;;;;;;5017783;28;20061;-78
2022/07/13 06:37:58;;;;;;;2.28;1.10;;;20.20;99.90;;;;;;5019481;28;20129;-78
2022/07/13 06:40:25;;;;;;;1.33;1.00;;;20.20;99.90;;;;;;5024557;28;20065;-78
2022/07/13 06:42:52;;;;;;;2.15;0.90;;;20.20;99.90;;;;;;5025020;28;20037;-78
2022/07/13 06:45:21;;;;;;;2.63;1.13;;;20.30;99.90;;;;;;5024666;28;20062;-79
2022/07/13 06:47:49;;;;;;;1.58;0.73;;;20.30;99.90;;;;;;5018070;28;20482;-79
2022/07/13 06:50:16;;;;;;;1.63;0.85;;;20.30;99.90;;;;;;5023163;28;20069;-78
2022/07/13 06:52:44;;;;;;;3.63;0.95;;;20.30;99.90;;;;;;5024362;28;20110;-79
2022/07/13 06:55:11;;;;;;;1.00;0.80;;;20.40;99.90;;;;;;5025160;28;20530;-79
2022/07/13 06:57:38;;;;;;;1.98;0.88;;;20.40;99.90;;;;;;5037346;28;20074;-79
2022/07/13 07:00:06;;;;;;;1.40;0.80;;;20.40;99.90;;;;;;5018745;28;20065;-79
2022/07/13 07:02:36;;;;;;;1.73;0.80;;;20.50;99.90;;;;;;5012739;28;20069;-80
2022/07/13 07:05:05;;;;;;;3.67;0.97;;;20.50;99.90;;;;;;5022037;28;20073;-79
2022/07/13 07:07:31;;;;;;;3.00;0.80;;;20.50;99.90;;;;;;5025645;28;20510;-79
2022/07/13 07:09:58;;;;;;;3.53;1.05;;;20.60;99.90;;;;;;5021042;28;20050;-79
2022/07/13 07:12:25;;;;;;;1.20;1.00;;;20.60;99.90;;;;;;5010038;28;20520;-79
2022/07/13 07:14:52;;;;;;;2.47;0.95;;;20.60;99.90;;;;;;5026110;28;20042;-80
2022/07/13 07:17:18;;;;;;;1.50;0.98;;;20.70;99.90;;;;;;5022777;28;20077;-80
2022/07/13 07:19:45;;;;;;;2.17;0.90;;;20.70;99.90;;;;;;5019402;28;20129;-79
2022/07/13 07:22:13;;;;;;;3.75;1.00;;;20.80;99.90;;;;;;5018984;28;20076;-79
2022/07/13 07:24:40;;;;;;;1.10;0.88;;;20.80;99.90;;;;;;5015298;28;20049;-80
2022/07/13 07:27:09;;;;;;;4.15;0.85;;;20.90;99.90;;;;;;5020915;28;20284;-80
2022/07/13 07:29:37;;;;;;;1.63;0.80;;;20.90;99.90;;;;;;5012209;28;20054;-80
2022/07/13 07:32:05;;;;;;;0.80;0.80;;;21.00;99.90;;;;;;5018323;28;20121;-79
2022/07/13 07:34:33;;;;;;;2.00;1.00;;;21.00;99.90;;;;;;5016881;28;20069;-80
2022/07/13 07:37:00;;;;;;;2.88;0.98;;;21.00;99.90;;;;;;5020695;28;20134;-81
2022/07/13 07:39:27;;;;;;;0.95;0.73;;;21.10;99.90;;;;;;5034079;28;20423;-80
2022/07/13 07:41:53;;;;;;;4.53;0.85;;;21.10;99.90;;;;;;5023335;28;20105;-80
2022/07/13 07:44:20;;;;;;;2.47;0.57;;;21.20;99.90;;;;;;5015111;28;20584;-79
2022/07/13 07:46:52;;;;;;;2.40;0.80;;;21.30;99.90;;;;;;5023957;28;20045;-80
2022/07/13 07:49:19;;;;;;;5.47;0.95;;;21.30;99.90;;;;;;5018186;28;20116;-78
2022/07/13 07:51:46;;;;;;;11.43;1.15;;;21.30;99.90;;;;;;5021891;28;20047;-78
2022/07/13 07:54:32;;;;;;;1.38;0.90;;;21.40;99.90;;;;;;5017942;28;20048;-77
2022/07/13 07:56:59;;;;;;;1.77;1.10;;;21.40;99.90;;;;;;5019012;28;20479;-78
2022/07/13 07:59:26;;;;;;;5.25;1.27;;;21.50;99.90;;;;;;5017629;28;20125;-78
2022/07/13 08:01:53;;;;;;;2.35;1.00;;;21.50;99.90;;;;;;5021754;28;20503;-78
2022/07/13 08:04:20;;;;;;;8.30;0.90;;;21.60;99.90;;;;;;5019431;28;20129;-78
2022/07/13 08:06:47;;;;;;;2.95;1.02;;;21.60;99.90;;;;;;5022650;28;20076;-78
2022/07/13 08:09:14;;;;;;;5.53;1.05;;;21.70;99.90;;;;;;5031562;28;20486;-78
2022/07/13 08:11:40;;;;;;;2.13;0.98;;;21.80;99.90;;;;;;5014441;28;20085;-77
2022/07/13 08:14:08;;;;;;;4.30;0.95;;;22.00;99.90;;;;;;5021386;28;20515;-78
2022/07/13 08:16:35;;;;;;;2.35;0.90;;;22.20;99.90;;;;;;5021642;28;20503;-78
2022/07/13 08:19:02;;;;;;;1.98;0.90;;;22.30;99.90;;;;;;5019385;28;20116;-78
2022/07/13 08:21:49;;;;;;;2.05;0.88;;;22.40;99.90;;;;;;5032189;28;20053;-79
2022/07/13 08:24:16;;;;;;;2.70;0.77;;;22.40;99.90;;;;;;5024972;28;20073;-78
2022/07/13 08:26:42;;;;;;;0.88;0.80;;;22.40;99.90;;;;;;5020282;28;20103;-79
2022/07/13 08:29:09;;;;;;;1.38;0.70;;;22.50;99.90;;;;;;5021204;28;20081;-78
2022/07/13 08:31:36;;;;;;;2.47;0.85;;;22.50;99.90;;;;;;5020554;28;20134;-78
2022/07/13 08:39:33;;;;;;;3.95;0.82;;;22.70;99.90;;;;;;5021890;28;20041;-78
2022/07/13 08:42:00;;;;;;;4.10;0.93;;;22.80;99.90;;;;;;5018143;28;20053;-78
2022/07/13 08:44:27;;;;;;;8.60;1.00;;;22.90;99.90;;;;;;5022512;28;20504;-78
2022/07/13 08:47:00;;;;;;;2.15;0.80;;;23.00;99.90;;;;;;5018955;28;20055;-78
2022/07/13 08:49:28;;;;;;;1.25;1.02;;;23.10;99.90;;;;;;5022084;28;20077;-77
2022/07/13 08:51:56;;;;;;;2.83;0.77;;;23.20;99.90;;;;;;5021354;28;20046;-78
2022/07/13 08:54:23;;;;;;;1.90;0.90;;;23.30;99.90;;;;;;5019931;28;20049;-77
2022/07/13 08:56:50;;;;;;;3.40;0.73;;;23.40;99.90;;;;;;5020119;28;20073;-78
2022/07/13 08:59:16;;;;;;;2.03;0.60;;;23.60;99.90;;;;;;5021796;28;20046;-78
2022/07/13 09:01:43;;;;;;;2.35;0.68;;;23.70;99.90;;;;;;5020478;28;20041;-77
2022/07/13 09:04:15;;;;;;;3.92;0.80;;;23.80;99.90;;;;;;5016277;28;20064;-78
2022/07/13 09:06:45;;;;;;;4.32;0.80;;;23.90;99.90;;;;;;5027981;28;20050;-81
2022/07/13 09:09:27;;;;;;;2.42;0.68;;;23.90;99.90;;;;;;5018999;28;20077;-80
2022/07/13 09:12:16;;;;;;;4.18;0.70;;;24.10;99.90;;;;;;5022371;28;20396;-79
2022/07/13 09:14:59;;;;;;;4.72;0.85;;;24.10;99.90;;;;;;5029288;28;20068;-78
2022/07/13 09:17:47;;;;;;;5.32;0.73;;;24.30;99.90;;;;;;5026457;28;20042;-80
2022/07/13 09:20:13;;;;;;;2.35;0.80;;;24.40;99.90;;;;;;5025999;28;20089;-79
2022/07/13 09:22:58;;;;;;;1.10;0.60;;;24.40;99.90;;;;;;5026006;28;20041;-80
2022/07/13 09:25:26;;;;;;;0.75;0.60;;;24.40;99.90;;;;;;5023636;28;20037;-79
2022/07/13 09:27:54;;;;;;;2.53;0.55;;;24.40;99.90;;;;;;5021976;28;20397;-78
2022/07/13 09:30:25;;;;;;;1.05;0.60;;;24.40;99.90;;;;;;5019118;28;20070;-79
2022/07/13 09:32:57;;;;;;;3.30;0.65;;;24.40;99.90;;;;;;5027873;28;20045;-79
2022/07/13 09:35:39;;;;;;;3.50;0.68;;;24.40;99.90;;;;;;5024611;28;20041;-79
2022/07/13 09:38:06;;;;;;;1.83;0.68;;;24.40;99.90;;;;;;5017637;28;20076;-79
2022/07/13 09:40:33;;;;;;;2.70;0.63;;;24.40;99.90;;;;;;5018302;28;20054;-79
2022/07/13 09:48:30;;;;;;;3.97;0.95;;;24.50;99.90;;;;;;5019659;28;20499;-79
2022/07/13 09:50:57;;;;;;;2.65;0.80;;;24.50;99.90;;;;;;5021702;28;20137;-80
2022/07/13 09:53:32;;;;;;;1.35;0.50;;;24.60;99.90;;;;;;5022831;28;20089;-79
2022/07/13 09:56:03;;;;;;;3.70;0.80;;;24.50;99.90;;;;;;5020943;28;20080;-80
2022/07/13 09:58:32;;;;;;;0.60;0.60;;;24.60;99.90;;;;;;5026482;28;20128;-81
2022/07/13 10:01:02;;;;;;;2.80;0.40;;;24.80;99.90;;;;;;5021940;28;20042;-79
2022/07/13 10:03:29;;;;;;;2.80;0.57;;;24.90;99.90;;;;;;5026215;28;20046;-79
2022/07/13 10:06:01;;;;;;;1.35;0.52;;;24.90;99.90;;;;;;5021089;28;20038;-79
2022/07/13 10:08:28;;;;;;;2.15;0.60;;;24.90;99.90;;;;;;5023802;28;20265;-80
2022/07/13 10:10:55;;;;;;;2.72;0.77;;;24.90;99.90;;;;;;5019542;28;20100;-79
2022/07/13 10:13:23;;;;;;;2.72;0.70;;;25.00;99.90;;;;;;5020305;28;20050;-79
2022/07/13 10:15:50;;;;;;;1.95;0.68;;;25.00;99.90;;;;;;5017684;28;20570;-79
2022/07/13 10:18:29;;;;;;;2.90;0.65;;;25.10;99.90;;;;;;5024216;28;20507;-80
2022/07/13 10:21:16;;;;;;;2.25;0.60;;;25.20;99.90;;;;;;5017799;28;20039;-80
2022/07/13 10:23:43;;;;;;;1.20;0.60;;;25.30;99.90;;;;;;5020065;28;20061;-80
2022/07/13 10:26:24;;;;;;;1.13;0.80;;;25.40;99.90;;;;;;5024980;28;20049;-80
2022/07/13 10:29:02;;;;;;;3.90;0.80;;;25.40;99.90;;;;;;5041114;28;20046;-80
2022/07/13 10:31:30;;;;;;;2.50;0.50;;;25.40;99.90;;;;;;5031829;28;20046;-79
2022/07/13 10:33:57;;;;;;;3.90;0.80;;;25.50;99.90;;;;;;5038870;28;20115;-80
2022/07/13 10:36:52;;;;;;;2.13;0.55;;;25.80;99.90;;;;;;5029200;28;20042;-80
2022/07/13 10:39:29;;;;;;;2.83;0.70;;;25.80;99.90;;;;;;5031324;28;20535;-80
2022/07/13 10:42:00;;;;;;;0.70;0.50;;;25.80;99.90;;;;;;5025540;28;20034;-80
2022/07/13 10:44:37;;;;;;;2.75;0.82;;;25.80;99.90;;;;;;5035189;28;20052;-80
2022/07/13 10:47:06;;;;;;;2.58;0.55;;;25.80;99.90;;;;;;5026542;28;20432;-81
2022/07/13 10:49:45;;;;;;;1.87;0.60;;;25.80;99.90;;;;;;5035655;28;20049;-79
2022/07/13 10:52:21;;;;;;;2.40;0.40;;;25.80;99.90;;;;;;5017250;28;20490;-80
2022/07/13 10:55:04;;;;;;;4.78;1.05;;;26.10;99.90;;;;;;5018843;28;20041;-80
2022/07/13 10:57:32;;;;;;;2.83;0.52;;;26.30;99.90;;;;;;5019584;28;20068;-79
2022/07/13 11:00:22;;;;;;;0.60;0.30;;;26.20;99.90;;;;;;5023907;28;20069;-80
2022/07/13 11:03:01;;;;;;;2.10;0.65;;;26.20;99.90;;;;;;5020961;28;20053;-79
2022/07/13 11:05:34;;;;;;;0.60;0.40;;;26.30;99.90;;;;;;5025298;28;20133;-80
2022/07/13 11:08:12;;;;;;;2.78;0.47;;;26.30;99.90;;;;;;5020363;28;20076;-80
2022/07/13 11:10:39;;;;;;;2.30;0.82;;;26.20;99.90;;;;;;5039176;28;20205;-79
2022/07/13 11:13:13;;;;;;;3.30;0.65;;;26.30;99.90;;;;;;5029902;28;20053;-78
2022/07/13 11:15:53;;;;;;;1.13;0.70;;;26.30;99.90;;;;;;5035301;28;20552;-79
2022/07/13 11:18:27;;;;;;;4.22;0.70;;;26.30;99.90;;;;;;5033232;28;20073;-78
2022/07/13 11:21:22;;;;;;;3.33;0.50;;;26.40;99.90;;;;;;5033969;28;20045;-78
2022/07/13 11:27:15;;;;;;;0.60;0.50;;;26.50;99.90;;;;;;5035916;28;20077;-78
2022/07/13 11:29:53;;;;;;;2.50;0.68;;;26.50;99.90;;;;;;5047636;28;20338;-77
2022/07/13 11:32:28;;;;;;;2.70;0.70;;;26.70;99.90;;;;;;5041695;28;20488;-77
2022/07/13 11:34:55;;;;;;;0.52;0.40;;;26.60;99.90;;;;;;5036730;28;20081;-79
2022/07/13 11:37:23;;;;;;;3.50;0.60;;;26.70;99.90;;;;;;5027578;28;20057;-79
2022/07/13 11:39:50;;;;;;;3.13;0.60;;;26.80;99.90;;;;;;5028651;28;20080;-78
2022/07/13 11:42:21;;;;;;;1.38;0.52;;;26.90;99.90;;;;;;5050056;28;20334;-79
2022/07/13 11:44:50;;;;;;;2.78;0.43;;;27.10;99.90;;;;;;5044023;28;20042;-78
2022/07/13 11:47:17;;;;;;;1.95;0.30;;;27.30;99.90;;;;;;5031275;28;20073;-78
2022/07/13 11:49:49;;;;;;;0.82;0.52;;;27.40;99.90;;;;;;5036406;28;20514;-78
2022/07/13 11:52:22;;;;;;;0.73;0.40;;;27.50;99.90;;;;;;5032421;28;20046;-78
2022/07/13 11:54:57;;;;;;;2.42;0.85;;;27.50;99.90;;;;;;5036207;28;20488;-79
2022/07/13 11:57:24;;;;;;;1.55;0.50;;;27.70;99.90;;;;;;5034838;28;20053;-78
2022/07/13 11:59:51;;;;;;;1.30;0.50;;;27.70;99.90;;;;;;5036451;28;20046;-78
2022/07/13 12:02:18;;;;;;;1.20;0.40;;;27.90;99.90;;;;;;5040402;28;20056;-79
2022/07/13 12:04:46;;;;;;;4.78;0.40;;;28.00;99.90;;;;;;5045050;28;20053;-79
2022/07/13 12:07:18;;;;;;;0.68;0.35;;;28.10;99.90;;;;;;5041217;28;20104;-81
2022/07/13 12:10:01;;;;;;;1.38;0.50;;;28.20;99.90;;;;;;5040101;28;20068;-80
2022/07/13 12:12:31;;;;;;;0.68;0.30;;;28.30;99.90;;;;;;5039763;28;20045;-79
2022/07/13 12:14:58;;;;;;;0.40;0.40;;;28.40;99.90;;;;;;5037688;28;20054;-79
2022/07/13 12:17:27;;;;;;;2.53;0.50;;;28.50;99.90;;;;;;5045406;28;20054;-79
2022/07/13 12:20:14;;;;;;;0.93;0.40;;;28.50;99.90;;;;;;5040592;28;20065;-79
2022/07/13 12:22:49;;;;;;;4.63;0.80;;;28.40;99.90;;;;;;5040788;28;20054;-79
2022/07/13 12:25:22;;;;;;;1.85;0.45;;;28.30;99.90;;;;;;5034369;28;20050;-80
2022/07/13 12:27:51;;;;;;;2.78;0.60;;;28.30;99.90;;;;;;5036846;28;20073;-78
2022/07/13 12:30:18;;;;;;;5.57;0.75;;;28.30;99.90;;;;;;5044940;28;20057;-79
2022/07/13 12:32:57;;;;;;;1.40;0.50;;;28.20;99.90;;;;;;5036765;28;20046;-77
2022/07/13 12:35:28;;;;;;;1.33;0.40;;;28.20;99.90;;;;;;5036058;28;20046;-77
2022/07/13 12:37:57;;;;;;;2.83;0.40;;;28.30;99.90;;;;;;5034621;28;20073;-78
2022/07/13 12:40:40;;;;;;;0.70;0.40;;;28.30;99.90;;;;;;5033511;28;20052;-79
2022/07/13 12:43:32;;;;;;;4.18;0.50;;;28.20;99.90;;;;;;5037800;28;20312;-79
2022/07/13 12:46:03;;;;;;;2.25;0.73;;;28.30;99.90;;;;;;5040713;28;20050;-79
2022/07/13 12:48:34;;;;;;;2.63;0.60;;;28.30;99.90;;;;;;5037028;28;20058;-79
2022/07/13 12:51:04;;;;;;;2.08;0.30;;;28.20;99.90;;;;;;5044227;28;20102;-79
2022/07/13 12:54:02;;;;;;;2.67;0.60;;;28.30;99.90;;;;;;5061493;28;20045;-80
2022/07/13 12:56:47;;;;;;;1.75;0.40;;;28.40;99.90;;;;;;5042200;28;20033;-78
2022/07/13 12:59:17;;;;;;;6.70;0.65;;;28.60;99.90;;;;;;5042276;28;20057;-79
2022/07/13 13:01:45;;;;;;;3.53;0.38;;;28.60;99.90;;;;;;5038708;28;20050;-81
2022/07/13 13:04:12;;;;;;;3.45;0.60;;;28.80;99.90;;;;;;5040467;28;20056;-82
2022/07/13 13:06:42;;;;;;;3.22;0.52;;;28.90;99.90;;;;;;5040784;28;20061;-81
2022/07/13 13:09:10;;;;;;;1.85;0.82;;;29.10;99.90;;;;;;5033711;28;20506;-80
2022/07/13 13:11:38;;;;;;;3.15;0.70;;;29.20;99.90;;;;;;5037979;28;20132;-80
2022/07/13 13:14:06;;;;;;;2.85;0.40;;;29.30;99.90;;;;;;5042370;28;20042;-81